Time;durP1;ratioP1;P1;durP2;ratioP2;P2;SDS_P1;SDS_P2;PMS_P1;PMS_P2;Temp;Humidity;BMP_temperature;BMP_pressure;BME280_temperature;BME280_humidity;BME280_pressure;Samples;Min_cycle;Max_cycle;Signal;HPM_P1;HPM_P2
2021/05/02 00:03:00;;;;;;;6.95;3.50;;;6.60;99.90;;;;;;20875904;28;20029;-75
2021/05/02 00:13:03;;;;;;;9.98;5.70;;;6.60;99.90;;;;;;20913763;28;20190;-75
2021/05/02 00:23:04;;;;;;;8.00;4.60;;;6.60;99.90;;;;;;20916382;28;20040;-75
2021/05/02 00:33:05;;;;;;;6.60;4.20;;;6.50;99.90;;;;;;20917754;28;20056;-75
2021/05/02 00:43:09;;;;;;;10.63;5.97;;;6.50;99.90;;;;;;20913924;28;20384;-75
2021/05/02 00:53:16;;;;;;;12.07;6.72;;;6.50;99.90;;;;;;20914506;28;20033;-75
2021/05/02 01:03:23;;;;;;;15.38;8.85;;;6.50;99.90;;;;;;20913722;28;20033;-75
2021/05/02 01:13:26;;;;;;;22.70;11.40;;;6.40;99.90;;;;;;20864648;28;20041;-75
2021/05/02 01:23:30;;;;;;;28.17;13.50;;;6.40;99.90;;;;;;20829598;28;20464;-74
2021/05/02 01:33:31;;;;;;;30.08;13.82;;;6.40;99.90;;;;;;20828685;28;20053;-76
2021/05/02 01:43:32;;;;;;;30.50;15.53;;;6.40;99.90;;;;;;20828683;28;20033;-76
2021/05/02 01:53:32;;;;;;;30.23;15.83;;;6.30;99.90;;;;;;20827422;28;20104;-77
2021/05/02 02:03:34;;;;;;;20.60;11.20;;;6.30;99.90;;;;;;20827020;28;20032;-76
2021/05/02 02:13:35;;;;;;;;;;;6.30;99.90;;;;;;20876207;28;20032;-77
2021/05/02 02:23:39;;;;;;;23.80;12.90;;;6.40;99.90;;;;;;20908098;28;20295;-76
2021/05/02 02:33:42;;;;;;;25.25;14.02;;;6.40;99.90;;;;;;20907869;28;20037;-76
2021/05/02 02:43:57;;;;;;;27.10;14.77;;;6.30;99.90;;;;;;20907327;28;20057;-75
2021/05/02 02:53:59;;;;;;;30.35;15.18;;;6.30;99.90;;;;;;20905461;28;20064;-76
2021/05/02 03:04:02;;;;;;;32.92;16.60;;;6.20;99.90;;;;;;20906143;28;20049;-76
2021/05/02 03:14:03;;;;;;;35.00;17.92;;;6.10;99.90;;;;;;20905746;28;20033;-75
2021/05/02 03:24:07;;;;;;;35.27;18.50;;;6.10;99.90;;;;;;20904241;28;20100;-76
2021/05/02 03:34:11;;;;;;;39.90;19.67;;;6.10;99.90;;;;;;20905529;28;20036;-76
2021/05/02 03:44:12;;;;;;;41.35;20.23;;;6.00;99.90;;;;;;20904518;28;20033;-76
2021/05/02 03:54:12;;;;;;;51.53;20.77;;;6.00;99.90;;;;;;20913135;28;20036;-75
2021/05/02 04:04:15;;;;;;;50.60;23.57;;;6.00;99.90;;;;;;20918515;28;20040;-75
2021/05/02 04:14:17;;;;;;;58.03;23.75;;;5.90;99.90;;;;;;20862129;28;20049;-76
2021/05/02 04:24:18;;;;;;;48.78;22.60;;;5.90;99.90;;;;;;20833464;28;20034;-76
2021/05/02 04:34:20;;;;;;;44.88;21.17;;;5.90;99.90;;;;;;20833121;28;20064;-75
2021/05/02 04:44:22;;;;;;;41.97;19.02;;;5.90;99.90;;;;;;20832451;28;20030;-75
2021/05/02 04:54:23;;;;;;;34.50;16.98;;;6.00;99.90;;;;;;20832380;28;20040;-76
2021/05/02 05:04:24;;;;;;;38.93;18.27;;;6.00;99.90;;;;;;20831363;28;20400;-76
2021/05/02 05:14:25;;;;;;;46.13;19.43;;;6.00;99.90;;;;;;20887160;28;20029;-76
2021/05/02 05:24:26;;;;;;;30.17;14.63;;;6.10;99.90;;;;;;20911143;28;20495;-75
2021/05/02 05:34:26;;;;;;;43.97;19.93;;;6.20;99.90;;;;;;20911645;28;20446;-74
2021/05/02 05:44:27;;;;;;;45.60;21.77;;;6.30;99.90;;;;;;20911538;28;20146;-75
2021/05/02 05:54:28;;;;;;;49.23;22.23;;;6.30;99.90;;;;;;20910131;28;20045;-75
2021/05/02 06:04:29;;;;;;;37.37;20.43;;;6.30;99.90;;;;;;20907113;28;20036;-75
2021/05/02 06:14:30;;;;;;;68.87;30.43;;;6.60;99.90;;;;;;20850367;28;20029;-74
2021/05/02 06:24:31;;;;;;;54.33;25.37;;;6.60;99.90;;;;;;20825847;28;20395;-75
2021/05/02 06:34:32;;;;;;;37.15;20.55;;;6.80;99.90;;;;;;20825097;28;20396;-75
2021/05/02 06:44:33;;;;;;;35.73;19.90;;;6.80;99.90;;;;;;20824451;28;20029;-75
2021/05/02 06:54:33;;;;;;;34.77;19.60;;;7.00;99.90;;;;;;20824309;28;20036;-75
2021/05/02 07:04:35;;;;;;;33.67;18.67;;;7.10;99.90;;;;;;20822431;28;20439;-75
2021/05/02 07:14:35;;;;;;;31.40;17.77;;;7.60;99.90;;;;;;20880209;28;20068;-75
2021/05/02 07:24:37;;;;;;;32.70;18.03;;;7.70;99.90;;;;;;20869678;28;20508;-75
2021/05/02 07:34:38;;;;;;;30.17;17.85;;;7.80;99.90;;;;;;20890131;28;20500;-74
2021/05/02 07:44:39;;;;;;;29.70;17.93;;;8.20;99.90;;;;;;20920030;28;20060;-74
2021/05/02 07:54:40;;;;;;;21.97;13.07;;;8.40;99.90;;;;;;20913148;28;20052;-76
2021/05/02 08:04:41;;;;;;;28.00;12.53;;;8.40;99.90;;;;;;20877771;28;20029;-75
2021/05/02 08:14:42;;;;;;;29.60;16.53;;;8.20;99.90;;;;;;20881154;28;20381;-76
2021/05/02 08:24:43;;;;;;;35.50;17.73;;;8.20;99.90;;;;;;20837670;28;20541;-75
2021/05/02 08:34:44;;;;;;;36.23;18.43;;;8.60;99.90;;;;;;20857119;28;20033;-74
2021/05/02 08:44:45;;;;;;;27.27;15.77;;;9.50;99.90;;;;;;20897891;28;20032;-75
2021/05/02 08:54:47;;;;;;;27.50;16.13;;;9.10;99.90;;;;;;20915028;28;20032;-74
2021/05/02 09:04:56;;;;;;;21.40;14.32;;;9.50;99.90;;;;;;20888553;28;20033;-74
2021/05/02 09:14:57;;;;;;;22.63;14.10;;;9.80;99.90;;;;;;20868971;28;20083;-74
2021/05/02 09:25:12;;;;;;;22.20;13.77;;;9.10;99.90;;;;;;20867850;28;20429;-74
2021/05/02 09:35:27;;;;;;;27.42;12.93;;;9.80;99.90;;;;;;20867964;28;20026;-74
2021/05/02 09:45:28;;;;;;;19.48;12.00;;;9.50;99.90;;;;;;20871769;28;20032;-75
2021/05/02 09:55:34;;;;;;;16.60;12.33;;;11.40;99.90;;;;;;20879950;28;20516;-75
2021/05/02 10:05:51;;;;;;;17.75;11.52;;;11.20;99.90;;;;;;20826087;28;20041;-75
2021/05/02 10:15:52;;;;;;;18.70;11.98;;;10.30;99.90;;;;;;20879369;28;20576;-75
2021/05/02 10:25:57;;;;;;;14.45;9.10;;;9.70;99.90;;;;;;20863422;28;20033;-76
2021/05/02 10:36:06;;;;;;;17.02;10.98;;;9.60;99.90;;;;;;20860388;28;20040;-75
2021/05/02 10:46:09;;;;;;;13.55;6.43;;;10.00;99.90;;;;;;20848065;28;20447;-75
2021/05/02 10:56:14;;;;;;;10.98;7.53;;;9.50;99.90;;;;;;20844937;28;20040;-74
2021/05/02 11:06:41;;;;;;;13.38;8.65;;;9.40;99.90;;;;;;20878147;28;20033;-75
2021/05/02 11:17:02;;;;;;;11.82;7.78;;;11.00;99.90;;;;;;20860073;28;20589;-74
2021/05/02 11:37:52;;;;;;;14.05;9.52;;;11.80;99.90;;;;;;20863243;28;20046;-75
2021/05/02 11:47:53;;;;;;;15.48;9.70;;;12.00;99.90;;;;;;20816517;28;20041;-74
2021/05/02 11:57:56;;;;;;;8.48;5.35;;;12.10;99.90;;;;;;20840792;28;20138;-75
2021/05/02 12:08:12;;;;;;;11.93;7.68;;;11.10;99.90;;;;;;20845809;28;20210;-75
2021/05/02 12:18:16;;;;;;;13.20;8.30;;;9.40;99.90;;;;;;20812970;28;20048;-75
2021/05/02 12:28:17;;;;;;;14.10;9.35;;;8.30;99.90;;;;;;20821980;28;20050;-75
2021/05/02 12:38:25;;;;;;;14.50;8.40;;;7.60;99.90;;;;;;20868235;28;20047;-75
2021/05/02 12:48:31;;;;;;;17.02;10.30;;;7.90;99.90;;;;;;20841331;28;20116;-74
2021/05/02 12:58:34;;;;;;;17.60;11.10;;;7.70;99.90;;;;;;20857961;28;20563;-75
2021/05/02 13:08:36;;;;;;;24.40;13.45;;;7.40;99.90;;;;;;20849620;28;20025;-75
2021/05/02 13:18:37;;;;;;;21.27;12.20;;;7.30;99.90;;;;;;20852245;28;20057;-74
2021/05/02 13:28:38;;;;;;;16.10;10.47;;;7.50;99.90;;;;;;20825595;28;20461;-74
2021/05/02 13:38:39;;;;;;;14.30;9.32;;;8.50;99.90;;;;;;20823915;28;20037;-74
2021/05/02 13:48:41;;;;;;;13.33;9.07;;;8.90;99.90;;;;;;20829678;28;20037;-75
2021/05/02 13:58:42;;;;;;;;;;;10.20;99.90;;;;;;20857843;28;20032;-74
2021/05/02 14:08:43;;;;;;;9.90;6.07;;;11.10;99.90;;;;;;20841995;28;20433;-74
2021/05/02 14:18:44;;;;;;;7.07;5.57;;;10.90;99.90;;;;;;20862495;28;20282;-74
2021/05/02 14:28:45;;;;;;;21.73;7.87;;;11.90;99.90;;;;;;20887836;28;20087;-75
2021/05/02 14:38:45;;;;;;;34.72;12.85;;;12.60;99.90;;;;;;20814197;28;20045;-75
2021/05/02 14:48:46;;;;;;;7.38;4.55;;;12.30;99.90;;;;;;20835824;28;20031;-74
2021/05/02 14:58:47;;;;;;;6.65;4.20;;;13.00;99.90;;;;;;20828246;28;20106;-74
2021/05/02 15:08:48;;;;;;;5.97;4.68;;;13.30;99.90;;;;;;20839022;28;20029;-74
2021/05/02 15:18:50;;;;;;;9.60;5.53;;;13.30;99.90;;;;;;20840195;28;20044;-74
2021/05/02 15:28:51;;;;;;;6.20;4.60;;;12.30;99.90;;;;;;20845565;28;20037;-75
2021/05/02 15:38:52;;;;;;;8.23;5.63;;;11.40;99.90;;;;;;20839435;28;20083;-74
2021/05/02 15:48:53;;;;;;;8.80;5.73;;;10.50;99.90;;;;;;20841331;28;20438;-74
2021/05/02 15:58:54;;;;;;;10.80;6.93;;;9.80;99.90;;;;;;20896051;28;20091;-74
2021/05/02 16:08:57;;;;;;;11.83;7.87;;;9.50;99.90;;;;;;20882348;28;20484;-74
2021/05/02 16:18:59;;;;;;;11.60;8.45;;;9.20;99.90;;;;;;20879172;28;20747;-74
2021/05/02 16:29:00;;;;;;;11.13;4.20;;;8.40;99.90;;;;;;20883683;28;20246;-74
2021/05/02 16:39:03;;;;;;;7.35;4.28;;;7.10;99.90;;;;;;20890760;28;20025;-74
2021/05/02 16:49:05;;;;;;;9.98;6.80;;;7.10;99.90;;;;;;20892605;28;20508;-74
2021/05/02 16:59:06;;;;;;;8.60;4.57;;;6.90;99.90;;;;;;20890817;28;20129;-74
2021/05/02 17:09:08;;;;;;;5.27;3.80;;;6.90;99.90;;;;;;20878499;28;20033;-73
2021/05/02 17:19:09;;;;;;;6.70;4.60;;;7.10;99.90;;;;;;20837055;28;20029;-74
2021/05/02 17:29:10;;;;;;;4.67;3.23;;;7.20;99.90;;;;;;20805909;28;20042;-74
2021/05/02 17:39:11;;;;;;;4.40;3.40;;;7.60;99.90;;;;;;20831657;28;20037;-74
2021/05/02 17:49:12;;;;;;;4.93;3.90;;;7.50;99.90;;;;;;20864368;28;20041;-74
2021/05/02 17:59:15;;;;;;;7.17;5.27;;;7.50;99.90;;;;;;20831759;28;20558;-74
2021/05/02 18:09:16;;;;;;;7.50;4.50;;;7.10;99.90;;;;;;20843392;28;20041;-76
2021/05/02 18:19:17;;;;;;;4.97;3.50;;;7.10;99.90;;;;;;20819199;28;20098;-74
2021/05/02 18:29:18;;;;;;;9.27;5.63;;;6.90;99.90;;;;;;20852237;28;20052;-74
2021/05/02 18:39:19;;;;;;;10.70;5.30;;;6.90;99.90;;;;;;20809189;28;20033;-74
2021/05/02 18:49:20;;;;;;;6.40;4.60;;;7.10;99.90;;;;;;20803058;28;20087;-73
2021/05/02 18:59:21;;;;;;;7.37;5.60;;;7.00;99.90;;;;;;20801016;28;20034;-74
2021/05/02 19:09:23;;;;;;;12.97;7.13;;;6.70;99.90;;;;;;20798543;28;20072;-73
2021/05/02 19:19:23;;;;;;;10.93;7.25;;;6.00;99.90;;;;;;20871456;28;20032;-74
2021/05/02 19:29:24;;;;;;;13.90;7.40;;;5.60;99.90;;;;;;20898183;28;20032;-73
2021/05/02 19:39:25;;;;;;;11.37;7.37;;;5.70;99.90;;;;;;20820638;28;20049;-75
2021/05/02 19:49:26;;;;;;;7.03;4.53;;;5.80;99.90;;;;;;20816773;28;20393;-74
2021/05/02 19:59:27;;;;;;;9.03;6.60;;;5.80;99.90;;;;;;20815574;28;20525;-74
2021/05/02 20:09:28;;;;;;;8.67;6.10;;;5.80;99.90;;;;;;20814662;28;20038;-73
2021/05/02 20:19:30;;;;;;;12.27;6.93;;;5.60;99.90;;;;;;20843170;28;20056;-74
2021/05/02 20:29:31;;;;;;;15.55;8.55;;;5.70;99.90;;;;;;20814384;28;20029;-73
2021/05/02 20:39:32;;;;;;;17.63;10.37;;;5.60;99.90;;;;;;20813338;28;20793;-75
2021/05/02 20:49:33;;;;;;;20.20;11.63;;;5.50;99.90;;;;;;20813421;28;20125;-74
2021/05/02 20:59:35;;;;;;;17.63;11.98;;;5.60;99.90;;;;;;20812259;28;20053;-74
2021/05/02 21:09:36;;;;;;;19.93;11.53;;;5.80;99.90;;;;;;20836250;28;20029;-75
2021/05/02 21:19:37;;;;;;;16.40;10.97;;;5.80;99.90;;;;;;20867596;28;20026;-75
2021/05/02 21:29:38;;;;;;;18.03;11.07;;;5.80;99.90;;;;;;20865155;28;20021;-73
2021/05/02 21:39:38;;;;;;;16.03;11.13;;;5.80;99.90;;;;;;20861469;28;20045;-75
2021/05/02 21:49:39;;;;;;;17.80;10.47;;;5.60;99.90;;;;;;20855542;28;20119;-75
2021/05/02 21:59:40;;;;;;;25.37;14.43;;;5.50;99.90;;;;;;20849269;28;20037;-74
2021/05/02 22:09:42;;;;;;;22.23;13.23;;;5.50;99.90;;;;;;20865324;28;20041;-74
2021/05/02 22:19:43;;;;;;;21.25;11.88;;;5.40;99.90;;;;;;20864803;28;20109;-74
2021/05/02 22:29:44;;;;;;;21.20;12.37;;;5.50;99.90;;;;;;20894258;28;20064;-74
2021/05/02 22:39:45;;;;;;;20.50;11.27;;;5.30;99.90;;;;;;20882151;28;20158;-75
2021/05/02 22:49:46;;;;;;;19.17;10.90;;;5.20;99.90;;;;;;20907157;28;20025;-74
2021/05/02 22:59:47;;;;;;;21.23;10.80;;;5.10;99.90;;;;;;20924853;28;20029;-73
2021/05/02 23:09:54;;;;;;;18.10;10.83;;;5.20;99.90;;;;;;20933773;28;20451;-75
2021/05/02 23:19:55;;;;;;;15.55;9.63;;;5.40;99.90;;;;;;20933687;28;20033;-74
2021/05/02 23:29:56;;;;;;;16.13;8.73;;;5.30;99.90;;;;;;20933418;28;20515;-74
2021/05/02 23:39:57;;;;;;;18.10;10.47;;;4.60;99.90;;;;;;20933092;28;20376;-75
2021/05/02 23:49:58;;;;;;;16.63;10.73;;;4.30;99.90;;;;;;20932942;28;20055;-73
2021/05/02 23:59:59;;;;;;;16.93;10.17;;;4.20;99.90;;;;;;20914433;28;20044;-74
